createdAt,value
2022-11-30T00:00:43.704Z,15.77
2022-11-30T00:04:09.498Z,15.10
2022-11-30T00:07:34.529Z,16.90
2022-11-30T00:10:58.710Z,15.57
2022-11-30T00:14:22.367Z,16.30
2022-11-30T00:17:46.961Z,14.93
2022-11-30T00:21:15.658Z,15.67
2022-11-30T00:24:39.820Z,16.40
2022-11-30T00:28:03.380Z,17.03
2022-11-30T00:31:26.923Z,16.87
2022-11-30T00:34:50.544Z,17.73
2022-11-30T00:38:15.410Z,16.63
2022-11-30T00:41:39.024Z,18.03
2022-11-30T00:45:02.604Z,16.63
2022-11-30T00:48:26.633Z,16.47
2022-11-30T00:51:50.237Z,19.10
2022-11-30T00:55:15.301Z,16.60
2022-11-30T00:58:39.002Z,18.87
2022-11-30T01:02:02.714Z,18.33
2022-11-30T01:05:27.040Z,15.23
2022-11-30T01:08:50.657Z,18.63
2022-11-30T01:12:15.551Z,19.20
2022-11-30T01:15:41.051Z,20.43
2022-11-30T01:19:06.000Z,20.33
2022-11-30T01:22:30.366Z,19.30
2022-11-30T01:25:57.237Z,18.07
2022-11-30T01:29:22.191Z,18.73
2022-11-30T01:32:46.513Z,18.93
2022-11-30T01:36:12.650Z,18.90
2022-11-30T01:39:36.496Z,17.10
2022-11-30T01:43:00.143Z,17.03
2022-11-30T01:46:37.630Z,16.87
2022-11-30T01:50:06.184Z,17.43
2022-11-30T01:53:29.904Z,17.67
2022-11-30T01:56:57.437Z,18.00
2022-11-30T02:00:21.565Z,16.83
2022-11-30T02:03:54.119Z,16.20
2022-11-30T02:07:17.917Z,18.03
2022-11-30T02:10:46.113Z,19.10
2022-11-30T02:14:21.300Z,17.20
2022-11-30T02:17:52.961Z,19.00
2022-11-30T02:21:24.528Z,19.10
2022-11-30T02:25:01.697Z,17.43
2022-11-30T02:28:55.861Z,17.60
2022-11-30T02:32:23.856Z,17.10
2022-11-30T02:35:54.808Z,17.43
2022-11-30T02:39:22.078Z,17.17
2022-11-30T02:42:45.901Z,17.43
2022-11-30T02:46:17.533Z,19.57
2022-11-30T02:49:49.815Z,19.30
2022-11-30T02:53:13.503Z,18.90
2022-11-30T02:56:37.215Z,21.83
2022-11-30T03:00:03.874Z,18.40
2022-11-30T03:03:28.904Z,15.20
2022-11-30T03:06:52.504Z,16.33
2022-11-30T03:10:16.413Z,19.03
2022-11-30T03:13:39.921Z,17.07
2022-11-30T03:17:03.572Z,17.53
2022-11-30T03:20:28.515Z,14.60
2022-11-30T03:23:52.168Z,16.70
2022-11-30T03:27:16.031Z,15.93
2022-11-30T03:30:39.723Z,15.73
2022-11-30T03:34:03.372Z,15.13
2022-11-30T03:37:28.423Z,14.30
2022-11-30T03:40:52.021Z,14.17
2022-11-30T03:44:15.827Z,13.93
2022-11-30T03:47:39.973Z,13.63
2022-11-30T03:51:04.309Z,13.80
2022-11-30T03:54:29.331Z,15.97
2022-11-30T03:57:53.139Z,13.90
2022-11-30T04:01:19.259Z,12.67
2022-11-30T04:04:42.937Z,14.00
2022-11-30T04:08:06.976Z,14.33
2022-11-30T04:11:31.890Z,13.60
2022-11-30T04:14:55.871Z,16.47
2022-11-30T04:18:21.057Z,14.07
2022-11-30T04:21:44.702Z,13.10
2022-11-30T04:25:09.184Z,15.03
2022-11-30T04:28:34.461Z,13.27
2022-11-30T04:31:57.968Z,14.30
2022-11-30T04:35:21.585Z,13.40
2022-11-30T04:38:45.417Z,13.70
2022-11-30T04:42:09.057Z,11.93
2022-11-30T04:45:35.579Z,11.97
2022-11-30T04:48:59.534Z,10.30
2022-11-30T04:52:23.158Z,10.73
2022-11-30T04:55:46.783Z,10.00
2022-11-30T04:59:10.501Z,11.50
2022-11-30T05:02:35.463Z,9.30
2022-11-30T05:05:59.012Z,10.30
2022-11-30T05:09:22.587Z,10.20
2022-11-30T05:12:46.102Z,8.57
2022-11-30T05:16:10.599Z,8.93
2022-11-30T05:19:35.576Z,8.30
2022-11-30T05:22:59.240Z,8.50
2022-11-30T05:26:22.804Z,7.90
2022-11-30T05:29:46.398Z,7.43
2022-11-30T05:33:10.312Z,8.00
2022-11-30T05:36:35.243Z,6.97
2022-11-30T05:39:58.787Z,6.90
2022-11-30T05:43:22.398Z,6.50
2022-11-30T05:46:46.087Z,7.87
2022-11-30T05:50:10.337Z,6.77
2022-11-30T05:53:35.267Z,7.43
2022-11-30T05:56:58.866Z,7.07
2022-11-30T06:00:23.296Z,6.07
2022-11-30T06:03:47.076Z,7.20
2022-11-30T06:07:11.914Z,8.10
2022-11-30T06:10:37.564Z,7.60
2022-11-30T06:14:01.132Z,6.70
2022-11-30T06:17:24.817Z,8.00
2022-11-30T06:20:48.437Z,7.37
2022-11-30T06:24:12.214Z,8.27
2022-11-30T06:27:37.161Z,7.60
2022-11-30T06:31:01.661Z,7.67
2022-11-30T06:34:25.288Z,6.90
2022-11-30T06:37:48.930Z,7.17
2022-11-30T06:41:12.732Z,6.77
2022-11-30T06:44:38.017Z,7.40
2022-11-30T06:48:01.645Z,6.97
2022-11-30T06:51:25.145Z,8.20
2022-11-30T06:54:49.080Z,6.77
2022-11-30T06:58:12.779Z,7.67
2022-11-30T07:01:37.651Z,8.50
2022-11-30T07:05:01.269Z,8.50
2022-11-30T07:08:25.113Z,6.67
2022-11-30T07:11:49.168Z,6.60
2022-11-30T07:15:12.791Z,7.70
2022-11-30T07:18:37.821Z,8.30
2022-11-30T07:22:02.607Z,7.80
2022-11-30T07:25:43.966Z,6.13
2022-11-30T07:29:07.815Z,6.97
2022-11-30T07:32:31.394Z,6.60
2022-11-30T07:35:56.685Z,6.40
2022-11-30T07:39:20.445Z,7.17
2022-11-30T07:42:44.047Z,7.00
2022-11-30T07:46:08.518Z,6.57
2022-11-30T07:49:32.210Z,6.00
2022-11-30T07:52:57.131Z,5.53
2022-11-30T07:56:21.815Z,7.13
2022-11-30T07:59:45.996Z,4.93
2022-11-30T08:03:10.649Z,7.10
2022-11-30T08:06:34.944Z,6.00
2022-11-30T08:10:00.448Z,5.30
2022-11-30T08:13:25.512Z,5.03
2022-11-30T08:16:51.755Z,5.17
2022-11-30T08:20:15.989Z,6.07
2022-11-30T08:23:42.640Z,5.87
2022-11-30T08:27:08.909Z,4.33
2022-11-30T08:30:33.326Z,5.13
2022-11-30T08:33:59.354Z,5.77
2022-11-30T08:37:23.702Z,5.40
2022-11-30T08:40:48.090Z,4.60
2022-11-30T08:44:13.937Z,6.03
2022-11-30T08:47:38.999Z,5.50
2022-11-30T08:51:03.004Z,5.73
2022-11-30T08:54:29.586Z,5.67
2022-11-30T08:57:53.561Z,5.50
2022-11-30T09:01:20.804Z,8.33
2022-11-30T09:04:44.538Z,7.43
2022-11-30T09:08:08.203Z,6.60
2022-11-30T09:11:33.424Z,7.17
2022-11-30T09:14:58.567Z,6.43
2022-11-30T09:18:24.434Z,8.23
2022-11-30T09:21:51.939Z,6.43
2022-11-30T09:25:16.204Z,7.10
2022-11-30T09:28:40.466Z,6.60
2022-11-30T09:32:04.270Z,9.03
2022-11-30T09:35:29.169Z,9.40
2022-11-30T09:38:52.805Z,10.43
2022-11-30T09:42:29.348Z,11.80
2022-11-30T09:45:57.735Z,12.07
2022-11-30T09:49:26.069Z,13.77
2022-11-30T09:52:54.049Z,14.27
2022-11-30T09:56:24.589Z,12.20
2022-11-30T09:59:55.569Z,12.77
2022-11-30T10:03:20.675Z,12.20
2022-11-30T10:06:51.430Z,11.30
2022-11-30T10:10:33.549Z,13.70
2022-11-30T10:14:10.505Z,11.77
2022-11-30T10:17:45.103Z,13.37
2022-11-30T10:21:27.097Z,12.57
2022-11-30T10:25:10.196Z,11.00
2022-11-30T10:28:47.887Z,14.00
2022-11-30T10:32:19.323Z,14.80
2022-11-30T10:35:45.381Z,14.87
2022-11-30T10:39:19.825Z,14.47
2022-11-30T10:42:47.612Z,16.80
2022-11-30T10:46:19.648Z,16.87
2022-11-30T10:49:49.237Z,18.53
2022-11-30T10:53:13.880Z,15.20
2022-11-30T10:56:37.657Z,16.50
2022-11-30T11:00:06.499Z,17.80
2022-11-30T11:03:32.328Z,15.83
2022-11-30T11:06:59.195Z,16.47
2022-11-30T11:10:28.365Z,18.43
2022-11-30T11:13:51.938Z,17.00
2022-11-30T11:17:26.303Z,15.50
2022-11-30T11:21:05.928Z,14.10
2022-11-30T11:24:30.389Z,16.13
2022-11-30T11:27:55.826Z,18.43
2022-11-30T11:31:30.992Z,17.50
2022-11-30T11:34:55.018Z,16.50
2022-11-30T11:38:27.057Z,16.83
2022-11-30T11:41:50.739Z,17.40
2022-11-30T11:45:19.318Z,17.40
2022-11-30T11:48:49.949Z,20.30
2022-11-30T11:52:18.843Z,20.23
2022-11-30T11:55:45.473Z,19.67
2022-11-30T11:59:16.259Z,18.97
2022-11-30T12:02:49.877Z,19.70
2022-11-30T12:06:16.688Z,19.40
2022-11-30T12:09:46.742Z,20.20
2022-11-30T12:13:16.884Z,20.27
2022-11-30T12:17:01.984Z,20.60
2022-11-30T12:20:33.808Z,21.23
2022-11-30T12:24:13.721Z,22.30
2022-11-30T12:27:49.110Z,20.53
2022-11-30T12:31:18.766Z,20.03
2022-11-30T12:34:54.002Z,21.37
2022-11-30T12:38:26.219Z,19.60
2022-11-30T12:41:53.870Z,21.53
2022-11-30T12:45:25.283Z,21.43
2022-11-30T12:49:09.961Z,19.00
2022-11-30T12:52:43.800Z,20.07
2022-11-30T12:56:20.115Z,20.80
2022-11-30T12:59:50.588Z,21.17
2022-11-30T13:03:40.513Z,22.53
2022-11-30T13:07:11.810Z,22.10
2022-11-30T13:10:41.230Z,22.63
2022-11-30T13:14:10.127Z,23.00
2022-11-30T13:17:34.604Z,21.60
2022-11-30T13:21:07.035Z,20.00
2022-11-30T13:24:37.024Z,24.10
2022-11-30T13:28:10.799Z,21.47
2022-11-30T13:31:39.822Z,20.87
2022-11-30T13:35:41.979Z,23.40
2022-11-30T13:39:30.483Z,22.90
2022-11-30T13:42:56.814Z,21.87
2022-11-30T13:46:23.625Z,25.63
2022-11-30T13:49:48.006Z,22.27
2022-11-30T13:53:35.868Z,24.40
2022-11-30T13:56:59.562Z,24.53
2022-11-30T14:01:02.965Z,24.07
2022-11-30T14:04:34.337Z,25.90
2022-11-30T14:08:35.334Z,21.90
2022-11-30T14:11:58.946Z,23.87
2022-11-30T14:15:51.067Z,25.40
2022-11-30T14:19:16.223Z,26.50
2022-11-30T14:22:41.878Z,21.40
2022-11-30T14:26:11.055Z,26.83
2022-11-30T14:29:37.777Z,24.43
2022-11-30T14:33:06.997Z,25.10
2022-11-30T14:36:40.167Z,26.90
2022-11-30T14:40:06.317Z,25.33
2022-11-30T14:43:29.876Z,22.60
2022-11-30T14:46:53.673Z,27.37
2022-11-30T14:50:23.941Z,24.80
2022-11-30T14:53:58.666Z,25.33
2022-11-30T14:57:32.350Z,25.20
2022-11-30T15:00:57.241Z,23.57
2022-11-30T15:04:20.936Z,26.60
2022-11-30T15:07:45.649Z,25.40
2022-11-30T15:11:12.506Z,24.07
2022-11-30T15:14:36.142Z,24.57
2022-11-30T15:18:07.474Z,26.50
2022-11-30T15:21:33.125Z,23.83
2022-11-30T15:24:56.775Z,22.97
2022-11-30T15:28:23.786Z,21.17
2022-11-30T15:31:50.757Z,24.07
2022-11-30T15:35:23.609Z,22.50
2022-11-30T15:38:52.236Z,24.97
2022-11-30T15:42:21.943Z,24.80
2022-11-30T15:45:55.757Z,23.67
2022-11-30T15:49:25.447Z,25.73
2022-11-30T15:52:51.200Z,23.77
2022-11-30T15:56:25.221Z,24.33
2022-11-30T16:00:06.472Z,20.60
2022-11-30T16:03:31.429Z,22.90
2022-11-30T16:06:55.228Z,26.40
2022-11-30T16:10:22.529Z,25.03
2022-11-30T16:13:46.743Z,27.70
2022-11-30T16:17:12.156Z,20.13
2022-11-30T16:20:37.399Z,24.63
2022-11-30T16:24:01.007Z,20.90
2022-11-30T16:27:24.796Z,26.23
2022-11-30T16:30:49.837Z,23.33
2022-11-30T16:34:13.472Z,24.27
2022-11-30T16:37:38.442Z,24.17
2022-11-30T16:41:14.973Z,26.90
2022-11-30T16:44:38.596Z,22.37
2022-11-30T16:48:02.360Z,22.60
2022-11-30T16:51:27.589Z,21.20
2022-11-30T16:54:52.483Z,26.37
2022-11-30T16:58:16.051Z,25.50
2022-11-30T17:01:42.670Z,28.03
2022-11-30T17:05:07.396Z,29.80
2022-11-30T17:08:31.155Z,32.83
2022-11-30T17:11:56.208Z,30.40
2022-11-30T17:15:22.067Z,32.70
2022-11-30T17:18:45.681Z,33.90
2022-11-30T17:22:09.328Z,34.03
2022-11-30T17:25:33.331Z,33.23
2022-11-30T17:28:58.550Z,29.77
2022-11-30T17:32:22.340Z,38.23
2022-11-30T17:35:46.083Z,34.40
2022-11-30T17:39:09.871Z,30.80
2022-11-30T17:42:33.618Z,25.80
2022-11-30T17:45:58.698Z,33.90
2022-11-30T17:49:22.470Z,33.70
2022-11-30T17:52:46.127Z,34.10
2022-11-30T17:56:11.429Z,33.77
2022-11-30T17:59:35.125Z,27.97
2022-11-30T18:03:00.225Z,31.03
2022-11-30T18:06:23.992Z,30.70
2022-11-30T18:09:47.705Z,32.17
2022-11-30T18:13:11.649Z,33.50
2022-11-30T18:16:38.018Z,31.00
2022-11-30T18:20:03.240Z,33.97
2022-11-30T18:23:26.912Z,33.30
2022-11-30T18:26:50.530Z,28.57
2022-11-30T18:30:15.208Z,35.90
2022-11-30T18:33:39.332Z,32.57
2022-11-30T18:37:04.497Z,40.57
2022-11-30T18:40:28.613Z,36.27
2022-11-30T18:43:55.586Z,36.00
2022-11-30T18:47:19.248Z,40.33
2022-11-30T18:50:43.221Z,29.60
2022-11-30T18:54:09.517Z,39.97
2022-11-30T18:57:33.160Z,41.80
2022-11-30T19:00:56.737Z,42.73
2022-11-30T19:04:20.393Z,43.93
2022-11-30T19:07:44.196Z,45.33
2022-11-30T19:11:10.618Z,49.67
2022-11-30T19:14:34.261Z,49.43
2022-11-30T19:17:58.024Z,49.17
2022-11-30T19:21:23.656Z,60.50
2022-11-30T19:24:47.750Z,56.93
2022-11-30T19:28:12.903Z,41.40
2022-11-30T19:31:36.643Z,47.70
2022-11-30T19:35:00.438Z,54.57
2022-11-30T19:38:24.261Z,50.30
2022-11-30T19:41:48.107Z,45.83
2022-11-30T19:45:13.369Z,56.10
2022-11-30T19:48:37.719Z,43.17
2022-11-30T19:52:01.578Z,43.57
2022-11-30T19:55:25.372Z,28.37
2022-11-30T19:58:49.110Z,33.17
2022-11-30T20:02:14.878Z,44.40
2022-11-30T20:05:38.856Z,34.97
2022-11-30T20:09:03.173Z,32.80
2022-11-30T20:12:26.948Z,44.20
2022-11-30T20:15:50.845Z,40.03
2022-11-30T20:19:16.701Z,38.83
2022-11-30T20:22:40.786Z,43.53
2022-11-30T20:26:13.195Z,43.30
2022-11-30T20:29:37.136Z,41.70
2022-11-30T20:33:00.713Z,43.10
2022-11-30T20:36:25.860Z,45.60
2022-11-30T20:39:49.493Z,43.67
2022-11-30T20:43:13.210Z,41.37
2022-11-30T20:46:37.460Z,29.93
2022-11-30T20:50:01.189Z,36.60
2022-11-30T20:53:26.322Z,45.43
2022-11-30T20:56:51.259Z,49.70
2022-11-30T21:00:16.081Z,46.43
2022-11-30T21:03:40.412Z,46.40
2022-11-30T21:07:04.070Z,35.43
2022-11-30T21:10:29.066Z,35.97
2022-11-30T21:13:53.532Z,42.80
2022-11-30T21:17:17.092Z,31.60
2022-11-30T21:20:40.736Z,37.23
2022-11-30T21:24:06.850Z,40.03
2022-11-30T21:27:31.772Z,42.93
2022-11-30T21:30:55.488Z,34.20
2022-11-30T21:34:19.152Z,38.47
2022-11-30T21:37:42.801Z,40.50
2022-11-30T21:41:07.286Z,38.00
2022-11-30T21:44:32.301Z,39.70
2022-11-30T21:47:56.049Z,31.80
2022-11-30T21:51:21.444Z,34.77
2022-11-30T21:54:45.197Z,36.33
2022-11-30T21:58:08.848Z,36.50
2022-11-30T22:01:35.873Z,30.17
2022-11-30T22:04:59.520Z,34.63
2022-11-30T22:08:23.226Z,35.10
2022-11-30T22:11:47.361Z,36.80
2022-11-30T22:15:11.808Z,33.70
2022-11-30T22:18:37.579Z,32.97
2022-11-30T22:22:01.220Z,30.93
2022-11-30T22:25:24.718Z,31.87
2022-11-30T22:28:50.535Z,33.33
2022-11-30T22:32:14.261Z,34.27
2022-11-30T22:35:39.293Z,30.20
2022-11-30T22:39:05.965Z,27.63
2022-11-30T22:42:29.671Z,33.73
2022-11-30T22:45:53.296Z,35.40
2022-11-30T22:49:21.100Z,30.00
2022-11-30T22:53:02.394Z,31.70
2022-11-30T22:56:28.193Z,38.20
2022-11-30T22:59:51.860Z,36.90
2022-11-30T23:03:15.721Z,38.50
2022-11-30T23:06:40.384Z,42.10
2022-11-30T23:10:06.073Z,34.63
2022-11-30T23:13:30.156Z,32.07
2022-11-30T23:16:53.761Z,39.43
2022-11-30T23:20:17.747Z,38.30
2022-11-30T23:23:41.753Z,36.87
2022-11-30T23:27:06.806Z,31.20
2022-11-30T23:30:30.629Z,22.97
2022-11-30T23:33:54.796Z,33.13
2022-11-30T23:37:18.444Z,28.67
2022-11-30T23:40:42.187Z,38.43
2022-11-30T23:44:08.218Z,30.73
2022-11-30T23:47:31.880Z,32.13
2022-11-30T23:50:56.036Z,37.60
2022-11-30T23:54:19.900Z,31.17
2022-11-30T23:57:43.493Z,26.07
